createdAt,value
2022-09-11T00:01:19.652Z,4.53
2022-09-11T00:03:47.071Z,4.60
2022-09-11T00:06:28.488Z,4.73
2022-09-11T00:09:00.737Z,4.67
2022-09-11T00:11:33.709Z,4.70
2022-09-11T00:14:00.765Z,3.90
2022-09-11T00:16:30.096Z,4.10
2022-09-11T00:18:59.924Z,4.50
2022-09-11T00:21:27.459Z,4.27
2022-09-11T00:23:54.128Z,4.13
2022-09-11T00:26:21.825Z,4.30
2022-09-11T00:28:50.612Z,3.90
2022-09-11T00:31:19.602Z,4.20
2022-09-11T00:33:46.547Z,4.07
2022-09-11T00:36:16.813Z,4.40
2022-09-11T00:38:44.218Z,4.50
2022-09-11T00:41:14.925Z,4.80
2022-09-11T00:44:03.019Z,4.60
2022-09-11T00:46:35.817Z,4.03
2022-09-11T00:49:25.123Z,4.47
2022-09-11T00:51:55.970Z,4.60
2022-09-11T00:54:31.054Z,4.60
2022-09-11T00:57:03.242Z,5.13
2022-09-11T00:59:31.679Z,4.43
2022-09-11T01:01:58.742Z,4.87
2022-09-11T01:04:25.798Z,3.87
2022-09-11T01:06:57.452Z,4.43
2022-09-11T01:09:27.713Z,4.10
2022-09-11T01:12:02.335Z,4.20
2022-09-11T01:14:55.201Z,4.43
2022-09-11T01:17:32.103Z,4.00
2022-09-11T01:20:05.689Z,3.90
2022-09-11T01:23:02.524Z,3.80
2022-09-11T01:25:44.502Z,3.33
2022-09-11T01:28:17.102Z,4.07
2022-09-11T01:30:50.809Z,3.93
2022-09-11T01:33:39.087Z,3.93
2022-09-11T01:36:10.894Z,3.53
2022-09-11T01:38:40.633Z,3.30
2022-09-11T01:41:14.219Z,3.43
2022-09-11T01:43:48.895Z,3.80
2022-09-11T01:46:23.116Z,3.80
2022-09-11T01:48:59.329Z,3.77
2022-09-11T01:51:31.498Z,3.47
2022-09-11T01:54:02.241Z,3.83
2022-09-11T01:56:37.963Z,3.30
2022-09-11T01:59:07.331Z,3.53
2022-09-11T02:01:36.947Z,3.70
2022-09-11T02:04:07.925Z,3.13
2022-09-11T02:06:46.429Z,3.30
2022-09-11T02:09:16.463Z,3.33
2022-09-11T02:11:48.374Z,3.47
2022-09-11T02:14:46.274Z,3.30
2022-09-11T02:17:24.688Z,3.13
2022-09-11T02:19:57.153Z,4.00
2022-09-11T02:22:24.755Z,2.90
2022-09-11T02:24:52.130Z,2.93
2022-09-11T02:27:23.364Z,3.00
2022-09-11T02:29:50.443Z,3.00
2022-09-11T02:32:18.864Z,2.40
2022-09-11T02:34:47.974Z,2.80
2022-09-11T02:37:39.462Z,2.87
2022-09-11T02:40:24.466Z,2.60
2022-09-11T02:43:12.023Z,2.70
2022-09-11T02:46:09.221Z,2.53
2022-09-11T02:48:38.777Z,2.50
2022-09-11T02:51:25.172Z,3.10
2022-09-11T02:54:06.166Z,2.63
2022-09-11T02:57:13.795Z,2.40
2022-09-11T02:59:45.036Z,2.23
2022-09-11T03:02:15.869Z,2.63
2022-09-11T03:04:42.617Z,2.80
2022-09-11T03:07:09.333Z,2.60
2022-09-11T03:09:37.135Z,2.50
2022-09-11T03:12:05.480Z,2.80
2022-09-11T03:14:32.063Z,2.40
2022-09-11T03:16:58.854Z,2.70
2022-09-11T03:19:25.570Z,2.63
2022-09-11T03:21:52.280Z,3.07
2022-09-11T03:24:18.935Z,3.03
2022-09-11T03:26:45.829Z,2.93
2022-09-11T03:29:12.678Z,2.80
2022-09-11T03:31:39.586Z,2.60
2022-09-11T03:34:06.527Z,2.93
2022-09-11T03:36:34.520Z,3.37
2022-09-11T03:39:01.691Z,3.27
2022-09-11T03:41:28.557Z,2.90
2022-09-11T03:43:55.236Z,2.80
2022-09-11T03:46:21.919Z,2.77
2022-09-11T03:48:48.536Z,2.57
2022-09-11T03:51:15.306Z,2.57
2022-09-11T03:53:42.475Z,2.50
2022-09-11T03:56:09.135Z,2.57
2022-09-11T03:58:35.899Z,2.70
2022-09-11T04:01:08.386Z,2.50
2022-09-11T04:03:34.995Z,2.43
2022-09-11T04:06:03.179Z,3.17
2022-09-11T04:08:33.801Z,3.27
2022-09-11T04:11:03.528Z,3.13
2022-09-11T04:13:35.766Z,2.90
2022-09-11T04:16:05.763Z,2.73
2022-09-11T04:18:35.656Z,3.07
2022-09-11T04:21:07.127Z,2.90
2022-09-11T04:23:34.144Z,2.90
2022-09-11T04:26:01.682Z,3.20
2022-09-11T04:28:29.876Z,2.97
2022-09-11T04:31:02.188Z,3.10
2022-09-11T04:33:28.757Z,3.57
2022-09-11T04:35:55.401Z,3.60
2022-09-11T04:38:23.131Z,3.13
2022-09-11T04:40:50.121Z,3.20
2022-09-11T04:43:17.787Z,3.70
2022-09-11T04:45:44.445Z,3.10
2022-09-11T04:48:11.065Z,3.50
2022-09-11T04:50:37.708Z,3.23
2022-09-11T04:53:04.341Z,3.23
2022-09-11T04:55:30.935Z,3.23
2022-09-11T04:57:57.523Z,2.83
2022-09-11T05:00:25.174Z,3.30
2022-09-11T05:02:54.599Z,3.93
2022-09-11T05:05:21.274Z,3.50
2022-09-11T05:07:50.992Z,3.53
2022-09-11T05:10:17.592Z,3.70
2022-09-11T05:12:44.917Z,3.57
2022-09-11T05:15:11.472Z,3.37
2022-09-11T05:17:39.369Z,3.60
2022-09-11T05:20:11.162Z,3.73
2022-09-11T05:22:38.464Z,4.90
2022-09-11T05:25:05.279Z,4.53
2022-09-11T05:27:31.904Z,4.10
2022-09-11T05:29:58.516Z,4.40
2022-09-11T05:32:25.065Z,4.67
2022-09-11T05:34:51.700Z,4.80
2022-09-11T05:37:18.269Z,5.10
2022-09-11T05:39:44.930Z,5.40
2022-09-11T05:42:11.804Z,5.07
2022-09-11T05:44:38.402Z,5.07
2022-09-11T05:47:05.194Z,5.00
2022-09-11T05:49:31.818Z,5.03
2022-09-11T05:51:58.402Z,5.63
2022-09-11T05:54:25.418Z,5.67
2022-09-11T05:56:52.123Z,5.30
2022-09-11T05:59:20.697Z,5.70
2022-09-11T06:01:47.950Z,5.17
2022-09-11T06:04:14.602Z,6.07
2022-09-11T06:06:41.308Z,5.83
2022-09-11T06:09:08.357Z,6.10
2022-09-11T06:11:40.680Z,5.80
2022-09-11T06:14:07.361Z,6.27
2022-09-11T06:16:34.488Z,5.67
2022-09-11T06:19:01.142Z,6.33
2022-09-11T06:21:29.294Z,6.00
2022-09-11T06:23:56.006Z,6.83
2022-09-11T06:26:26.436Z,7.03
2022-09-11T06:28:54.163Z,7.90
2022-09-11T06:31:24.368Z,7.10
2022-09-11T06:33:51.384Z,7.47
2022-09-11T06:36:20.142Z,7.40
2022-09-11T06:38:47.398Z,17.83
2022-09-11T06:41:16.378Z,22.87
2022-09-11T06:43:44.229Z,8.27
2022-09-11T06:46:16.061Z,6.87
2022-09-11T06:48:44.538Z,7.47
2022-09-11T06:51:13.479Z,6.70
2022-09-11T06:53:43.801Z,6.33
2022-09-11T06:56:13.088Z,6.70
2022-09-11T06:58:41.708Z,6.63
2022-09-11T07:01:12.019Z,6.17
2022-09-11T07:03:41.539Z,6.53
2022-09-11T07:06:08.171Z,6.00
2022-09-11T07:08:34.821Z,6.33
2022-09-11T07:11:05.794Z,6.10
2022-09-11T07:13:37.183Z,5.90
2022-09-11T07:16:07.818Z,6.17
2022-09-11T07:18:42.670Z,6.73
2022-09-11T07:21:23.892Z,7.00
2022-09-11T07:23:54.507Z,6.47
2022-09-11T07:26:22.984Z,6.30
2022-09-11T07:28:51.511Z,6.80
2022-09-11T07:31:21.269Z,5.97
2022-09-11T07:33:49.618Z,6.60
2022-09-11T07:36:21.248Z,7.20
2022-09-11T07:38:49.680Z,7.27
2022-09-11T07:41:18.587Z,6.93
2022-09-11T07:43:48.502Z,6.80
2022-09-11T07:46:15.414Z,5.47
2022-09-11T07:48:45.385Z,5.33
2022-09-11T07:51:14.499Z,7.53
2022-09-11T07:53:46.539Z,6.83
2022-09-11T07:56:15.819Z,7.53
2022-09-11T07:58:43.892Z,6.37
2022-09-11T08:01:19.847Z,6.20
2022-09-11T08:03:46.766Z,7.03
2022-09-11T08:06:22.057Z,6.87
2022-09-11T08:08:53.224Z,7.13
2022-09-11T08:11:20.898Z,6.57
2022-09-11T08:13:51.068Z,6.90
2022-09-11T08:16:19.536Z,6.80
2022-09-11T08:18:46.279Z,6.97
2022-09-11T08:21:13.350Z,7.27
2022-09-11T08:23:42.412Z,9.17
2022-09-11T08:26:14.651Z,7.33
2022-09-11T08:28:43.183Z,7.03
2022-09-11T08:31:10.780Z,6.77
2022-09-11T08:33:37.672Z,6.57
2022-09-11T08:36:06.487Z,6.80
2022-09-11T08:38:33.535Z,6.47
2022-09-11T08:41:25.157Z,6.60
2022-09-11T08:43:56.686Z,14.07
2022-09-11T08:46:26.922Z,6.57
2022-09-11T08:49:02.298Z,7.13
2022-09-11T08:51:28.954Z,6.40
2022-09-11T08:53:57.016Z,7.43
2022-09-11T08:56:28.677Z,6.50
2022-09-11T08:59:27.083Z,6.20
2022-09-11T09:02:24.366Z,6.27
2022-09-11T09:05:02.892Z,6.97
2022-09-11T09:07:45.034Z,6.50
2022-09-11T09:10:31.129Z,5.50
2022-09-11T09:13:24.743Z,6.13
2022-09-11T09:16:20.494Z,6.47
2022-09-11T09:18:55.241Z,6.37
2022-09-11T09:21:37.586Z,6.47
2022-09-11T09:24:21.243Z,6.40
2022-09-11T09:26:54.006Z,6.37
2022-09-11T09:29:28.579Z,7.47
2022-09-11T09:32:04.689Z,6.80
2022-09-11T09:34:35.228Z,6.77
2022-09-11T09:37:12.177Z,5.90
2022-09-11T09:39:39.261Z,6.10
2022-09-11T09:42:24.301Z,6.33
2022-09-11T09:44:50.874Z,7.30
2022-09-11T09:47:17.804Z,6.57
2022-09-11T09:49:45.450Z,6.10
2022-09-11T09:52:19.930Z,5.07
2022-09-11T09:55:02.690Z,5.87
2022-09-11T09:57:39.309Z,5.40
2022-09-11T10:00:13.088Z,5.60
2022-09-11T10:02:45.395Z,5.80
2022-09-11T10:05:31.471Z,6.43
2022-09-11T10:08:00.937Z,5.33
2022-09-11T10:10:27.528Z,5.63
2022-09-11T10:13:17.987Z,5.57
2022-09-11T10:15:48.347Z,5.53
2022-09-11T10:18:22.624Z,5.60
2022-09-11T10:20:49.383Z,5.63
2022-09-11T10:23:27.694Z,6.47
2022-09-11T10:25:54.699Z,6.07
2022-09-11T10:28:32.981Z,5.33
2022-09-11T10:31:05.059Z,5.70
2022-09-11T10:33:39.953Z,7.17
2022-09-11T10:36:09.942Z,6.43
2022-09-11T10:38:45.689Z,5.90
2022-09-11T10:41:14.517Z,5.87
2022-09-11T10:43:53.333Z,6.03
2022-09-11T10:46:25.871Z,5.70
2022-09-11T10:49:03.091Z,5.37
2022-09-11T10:51:32.730Z,5.73
2022-09-11T10:54:05.818Z,4.87
2022-09-11T10:56:40.109Z,8.90
2022-09-11T10:59:17.197Z,4.83
2022-09-11T11:01:44.379Z,4.47
2022-09-11T11:20:10.923Z,5.40
2022-09-11T11:22:54.198Z,4.73
2022-09-11T11:25:21.679Z,5.70
2022-09-11T11:28:12.142Z,5.63
2022-09-11T11:31:06.179Z,5.10
2022-09-11T11:33:39.085Z,4.77
2022-09-11T11:36:28.091Z,5.30
2022-09-11T11:39:02.167Z,5.17
2022-09-11T11:42:05.001Z,5.50
2022-09-11T11:44:51.415Z,5.37
2022-09-11T11:47:25.363Z,5.37
2022-09-11T11:49:54.995Z,6.30
2022-09-11T11:52:38.115Z,5.60
2022-09-11T11:55:32.154Z,5.60
2022-09-11T11:58:12.818Z,6.27
2022-09-11T12:00:47.104Z,6.03
2022-09-11T12:03:32.852Z,6.13
2022-09-11T12:05:59.542Z,5.37
2022-09-11T12:08:29.722Z,6.83
2022-09-11T12:11:02.496Z,5.03
2022-09-11T12:13:35.989Z,5.67
2022-09-11T12:16:15.174Z,6.27
2022-09-11T12:19:00.498Z,5.90
2022-09-11T12:21:31.910Z,5.90
2022-09-11T12:23:58.471Z,4.60
2022-09-11T12:26:30.707Z,4.43
2022-09-11T12:29:13.036Z,5.73
2022-09-11T12:32:05.104Z,4.43
2022-09-11T12:34:43.990Z,5.20
2022-09-11T12:37:38.264Z,4.60
2022-09-11T12:40:19.153Z,4.43
2022-09-11T12:42:48.527Z,4.73
2022-09-11T12:45:36.759Z,5.17
2022-09-11T12:48:07.396Z,5.00
2022-09-11T12:50:35.293Z,4.90
2022-09-11T12:53:04.381Z,5.20
2022-09-11T12:55:40.710Z,4.47
2022-09-11T12:58:20.812Z,4.23
2022-09-11T13:01:30.626Z,4.77
2022-09-11T13:04:03.406Z,5.13
2022-09-11T13:06:43.366Z,5.30
2022-09-11T13:09:46.935Z,5.00
2022-09-11T13:12:25.853Z,4.33
2022-09-11T13:14:59.014Z,4.53
2022-09-11T13:17:37.168Z,4.70
2022-09-11T13:20:07.647Z,5.27
2022-09-11T13:22:35.310Z,4.67
2022-09-11T13:25:18.611Z,4.20
2022-09-11T13:27:54.117Z,4.50
2022-09-11T13:30:23.108Z,4.03
2022-09-11T13:32:59.901Z,5.07
2022-09-11T13:35:29.932Z,4.97
2022-09-11T13:38:13.171Z,5.10
2022-09-11T13:40:54.288Z,5.03
2022-09-11T13:43:29.820Z,5.20
2022-09-11T13:46:19.089Z,5.20
2022-09-11T13:48:49.177Z,5.00
2022-09-11T13:51:31.246Z,5.13
2022-09-11T13:54:09.198Z,5.10
2022-09-11T13:56:54.422Z,4.97
2022-09-11T13:59:55.021Z,4.70
2022-09-11T14:02:31.174Z,4.43
2022-09-11T14:05:22.731Z,4.47
2022-09-11T14:08:20.513Z,4.77
2022-09-11T14:10:53.825Z,4.50
2022-09-11T14:13:35.315Z,5.00
2022-09-11T14:16:04.746Z,4.83
2022-09-11T14:18:40.482Z,4.70
2022-09-11T14:21:18.274Z,5.60
2022-09-11T14:23:50.311Z,4.40
2022-09-11T14:26:25.691Z,4.57
2022-09-11T14:28:54.677Z,4.60
2022-09-11T14:31:38.813Z,4.47
2022-09-11T14:34:21.269Z,4.90
2022-09-11T14:36:57.644Z,4.60
2022-09-11T14:39:33.391Z,4.37
2022-09-11T14:42:01.338Z,4.30
2022-09-11T14:44:28.810Z,3.80
2022-09-11T14:46:56.210Z,4.43
2022-09-11T14:49:23.339Z,4.57
2022-09-11T14:52:00.707Z,4.53
2022-09-11T14:54:32.739Z,4.20
2022-09-11T14:57:00.242Z,4.20
2022-09-11T14:59:29.228Z,4.00
2022-09-11T15:01:58.590Z,4.47
2022-09-11T15:04:25.601Z,3.50
2022-09-11T15:06:55.515Z,3.60
2022-09-11T15:09:25.576Z,4.23
2022-09-11T15:11:53.095Z,3.77
2022-09-11T15:14:38.110Z,3.90
2022-09-11T15:17:10.218Z,4.40
2022-09-11T15:19:38.203Z,4.33
2022-09-11T15:22:06.175Z,4.00
2022-09-11T15:24:33.379Z,4.20
2022-09-11T15:27:00.158Z,4.90
2022-09-11T15:29:31.374Z,4.23
2022-09-11T15:31:59.608Z,4.17
2022-09-11T15:34:27.303Z,5.00
2022-09-11T15:36:53.989Z,4.20
2022-09-11T15:39:21.517Z,4.50
2022-09-11T15:41:48.221Z,4.30
2022-09-11T15:44:24.358Z,4.23
2022-09-11T15:46:53.091Z,4.47
2022-09-11T15:49:21.758Z,4.50
2022-09-11T15:51:54.006Z,4.37
2022-09-11T15:54:23.234Z,4.67
2022-09-11T15:56:51.172Z,4.77
2022-09-11T15:59:18.033Z,4.60
2022-09-11T16:01:45.448Z,4.40
2022-09-11T16:04:16.596Z,4.90
2022-09-11T16:06:45.903Z,4.50
2022-09-11T16:09:22.295Z,4.67
2022-09-11T16:11:50.595Z,4.97
2022-09-11T16:14:31.163Z,4.93
2022-09-11T16:16:58.491Z,4.97
2022-09-11T16:19:28.242Z,5.27
2022-09-11T16:22:01.068Z,6.23
2022-09-11T16:24:29.899Z,5.30
2022-09-11T16:26:56.607Z,5.83
2022-09-11T16:29:25.857Z,6.60
2022-09-11T16:31:52.718Z,5.67
2022-09-11T16:34:19.532Z,5.80
2022-09-11T16:36:46.745Z,5.90
2022-09-11T16:39:19.418Z,5.77
2022-09-11T16:41:47.378Z,5.30
2022-09-11T16:44:15.580Z,5.47
2022-09-11T16:46:42.600Z,5.30
2022-09-11T16:49:15.498Z,3.93
2022-09-11T16:51:44.434Z,4.67
2022-09-11T16:54:11.501Z,5.13
2022-09-11T16:56:43.904Z,5.03
2022-09-11T16:59:12.532Z,4.40
2022-09-11T17:01:39.395Z,4.97
2022-09-11T17:04:06.108Z,4.57
2022-09-11T17:06:33.443Z,4.93
2022-09-11T17:09:02.233Z,3.80
2022-09-11T17:11:31.186Z,4.40
2022-09-11T17:14:00.689Z,3.53
2022-09-11T17:16:29.953Z,3.77
2022-09-11T17:18:58.090Z,3.90
2022-09-11T17:21:26.430Z,3.87
2022-09-11T17:23:55.174Z,3.43
2022-09-11T17:26:22.733Z,3.73
2022-09-11T17:28:50.908Z,3.53
2022-09-11T17:31:19.557Z,4.00
2022-09-11T17:33:47.715Z,3.33
2022-09-11T17:36:17.912Z,3.43
2022-09-11T17:38:46.772Z,3.80
2022-09-11T17:41:17.539Z,3.57
2022-09-11T17:43:44.816Z,3.80
2022-09-11T17:46:15.142Z,3.80
2022-09-11T17:48:42.768Z,3.40
2022-09-11T17:51:16.457Z,4.03
2022-09-11T17:53:48.074Z,3.73
2022-09-11T17:56:19.972Z,3.73
2022-09-11T17:58:55.019Z,3.50
2022-09-11T18:01:21.805Z,3.70
2022-09-11T18:03:53.712Z,3.70
2022-09-11T18:06:29.636Z,3.43
2022-09-11T18:09:02.250Z,3.50
2022-09-11T18:11:30.249Z,3.60
2022-09-11T18:13:58.297Z,3.37
2022-09-11T18:16:25.150Z,3.67
2022-09-11T18:18:52.032Z,3.63
2022-09-11T18:21:18.798Z,3.37
2022-09-11T18:23:46.616Z,3.07
2022-09-11T18:26:25.940Z,4.03
2022-09-11T18:29:06.215Z,4.20
2022-09-11T18:31:39.817Z,3.80
2022-09-11T18:34:07.377Z,3.80
2022-09-11T18:36:34.015Z,3.83
2022-09-11T18:39:02.966Z,4.07
2022-09-11T18:41:32.830Z,3.47
2022-09-11T18:44:00.744Z,4.10
2022-09-11T18:46:28.703Z,3.70
2022-09-11T18:48:56.030Z,4.50
2022-09-11T18:51:23.079Z,3.47
2022-09-11T18:53:53.947Z,3.70
2022-09-11T18:56:22.574Z,3.50
2022-09-11T18:58:53.246Z,3.93
2022-09-11T19:01:24.092Z,3.70
2022-09-11T19:03:53.438Z,3.87
2022-09-11T19:06:22.431Z,3.80
2022-09-11T19:08:49.752Z,3.87
2022-09-11T19:11:28.173Z,4.00
2022-09-11T19:14:00.108Z,3.90
2022-09-11T19:16:27.152Z,3.50
2022-09-11T19:18:53.976Z,4.10
2022-09-11T19:21:23.186Z,3.77
2022-09-11T19:23:55.750Z,4.43
2022-09-11T19:26:28.248Z,3.67
2022-09-11T19:28:56.314Z,3.70
2022-09-11T19:31:25.496Z,3.90
2022-09-11T19:33:53.475Z,3.80
2022-09-11T19:36:22.749Z,4.50
2022-09-11T19:38:51.891Z,4.47
2022-09-11T19:41:23.887Z,4.30
2022-09-11T19:43:50.905Z,3.87
2022-09-11T19:46:26.485Z,3.83
2022-09-11T19:48:57.010Z,4.17
2022-09-11T19:51:29.810Z,4.30
2022-09-11T19:54:00.406Z,3.80
2022-09-11T19:56:27.913Z,5.30
2022-09-11T19:58:55.224Z,4.47
2022-09-11T20:01:23.991Z,3.40
2022-09-11T20:03:55.455Z,3.27
2022-09-11T20:06:26.645Z,4.07
2022-09-11T20:09:08.002Z,3.57
2022-09-11T20:11:40.902Z,3.60
2022-09-11T20:14:07.641Z,3.50
2022-09-11T20:16:34.436Z,4.10
2022-09-11T20:19:09.329Z,4.23
2022-09-11T20:21:36.273Z,4.23
2022-09-11T20:24:06.236Z,4.87
2022-09-11T20:26:33.224Z,4.37
2022-09-11T20:29:02.505Z,3.93
2022-09-11T20:31:36.932Z,4.60
2022-09-11T20:34:07.313Z,4.83
2022-09-11T20:36:34.295Z,5.13
2022-09-11T20:39:00.984Z,4.27
2022-09-11T20:41:29.958Z,3.57
2022-09-11T20:43:58.071Z,3.23
2022-09-11T20:46:25.290Z,4.00
2022-09-11T20:48:53.324Z,3.50
2022-09-11T20:51:21.241Z,3.40
2022-09-11T20:53:48.484Z,3.37
2022-09-11T20:56:18.313Z,4.30
2022-09-11T20:58:45.069Z,4.00
2022-09-11T21:01:15.423Z,3.53
2022-09-11T21:03:46.969Z,3.73
2022-09-11T21:06:13.760Z,3.20
2022-09-11T21:08:42.170Z,3.30
2022-09-11T21:11:09.788Z,3.30
2022-09-11T21:13:38.837Z,3.23
2022-09-11T21:16:08.196Z,3.07
2022-09-11T21:18:35.179Z,3.00
2022-09-11T21:21:02.383Z,3.10
2022-09-11T21:23:29.340Z,3.00
2022-09-11T21:25:56.338Z,2.73
2022-09-11T21:28:23.273Z,3.00
2022-09-11T21:30:50.094Z,3.37
2022-09-11T21:33:17.381Z,2.90
2022-09-11T21:35:44.084Z,2.70
2022-09-11T21:38:10.670Z,2.73
2022-09-11T21:40:37.248Z,2.60
2022-09-11T21:43:04.444Z,2.80
2022-09-11T21:45:31.043Z,2.83
2022-09-11T21:47:57.660Z,2.83
2022-09-11T21:50:24.277Z,2.97
2022-09-11T21:52:50.914Z,2.90
2022-09-11T21:55:17.681Z,3.30
2022-09-11T21:57:44.709Z,3.03
2022-09-11T22:00:12.816Z,3.00
2022-09-11T22:02:39.614Z,2.70
2022-09-11T22:05:13.873Z,2.90
2022-09-11T22:07:41.211Z,2.80
2022-09-11T22:10:08.336Z,2.90
2022-09-11T22:12:35.075Z,3.10
2022-09-11T22:15:02.191Z,2.77
2022-09-11T22:17:28.893Z,3.03
2022-09-11T22:19:55.860Z,2.60
2022-09-11T22:22:23.087Z,3.10
2022-09-11T22:24:49.881Z,2.97
2022-09-11T22:27:16.468Z,3.30
2022-09-11T22:29:46.929Z,2.73
2022-09-11T22:32:13.756Z,3.00
2022-09-11T22:34:40.344Z,2.80
2022-09-11T22:37:06.986Z,2.57
2022-09-11T22:39:33.551Z,3.70
2022-09-11T22:42:00.217Z,2.93
2022-09-11T22:44:27.192Z,2.57
2022-09-11T22:46:53.902Z,2.73
2022-09-11T22:49:20.554Z,3.23
2022-09-11T22:51:47.243Z,2.37
2022-09-11T22:54:16.408Z,2.40
2022-09-11T22:56:43.374Z,2.70
2022-09-11T22:59:10.032Z,2.50
2022-09-11T23:01:37.064Z,2.60
2022-09-11T23:04:03.782Z,2.20
2022-09-11T23:06:48.988Z,2.53
2022-09-11T23:09:17.010Z,2.60
2022-09-11T23:11:45.431Z,2.90
2022-09-11T23:14:14.374Z,2.93
2022-09-11T23:16:42.346Z,2.50
2022-09-11T23:19:12.243Z,2.70
2022-09-11T23:21:38.839Z,2.87
2022-09-11T23:24:10.518Z,3.27
2022-09-11T23:26:37.166Z,2.80
2022-09-11T23:29:04.132Z,3.07
2022-09-11T23:31:32.936Z,2.97
2022-09-11T23:34:02.531Z,2.70
2022-09-11T23:36:30.663Z,3.17
2022-09-11T23:38:57.949Z,2.70
2022-09-11T23:41:24.963Z,2.87
2022-09-11T23:43:51.874Z,3.00
2022-09-11T23:46:18.748Z,2.50
2022-09-11T23:48:46.097Z,2.50
2022-09-11T23:51:13.403Z,3.37
2022-09-11T23:53:44.920Z,2.70
2022-09-11T23:56:14.462Z,3.00
2022-09-11T23:58:42.191Z,3.20
